Terminal Aerodrome Forecast
Issued by NWS

Home | Current Version | Previous Version | Text Only | Print | Product List | Glossary On
Versions: 1 2 3 4 5 6 7 8 9 10 11 12 13 14 15
209
FTUS42 KTBW 051744
TAFPGD
TAF
KPGD 051744Z 0518/0618 32012G18KT P6SM FEW060
     FM060300 VRB06KT P6SM SCT250
     FM061400 32011G19KT P6SM SCT250=

USA.gov is the U.S. government's official web portal to all federal, state and local government web resources and services.